Time,TemperatureF,DewpointF,PressureIn,WindDirection,WindDirectionDegrees,WindSpeedMPH,WindSpeedGustMPH,Humidity,HourlyPrecipIn,Conditions,Clouds,dailyrainin,SoftwareType,DateUTC
2013-07-01 00:01:00,61.0,48.0,-100.00,North,0,4.0,6.0,61,0.00,,,-99.99,,2013-07-01 05:01:00,
2013-07-01 00:11:00,61.0,49.0,-100.00,NNE,15,4.0,7.0,64,0.00,,,-99.99,,2013-07-01 05:11:00,
2013-07-01 00:22:00,61.0,49.0,-100.00,NNE,15,6.0,7.0,64,0.00,,,-99.99,,2013-07-01 05:22:00,
2013-07-01 00:33:00,61.0,49.0,-100.00,NNE,15,6.0,7.0,64,0.00,,,-99.99,,2013-07-01 05:33:00,
2013-07-01 00:42:00,61.0,49.0,-100.00,NNE,20,6.0,7.0,63,0.00,,,-99.99,,2013-07-01 05:42:00,
2013-07-01 00:52:00,61.0,49.0,-100.00,NNE,20,6.0,7.0,63,0.00,,,-99.99,,2013-07-01 05:52:00,
2013-07-01 01:02:00,61.0,48.0,-100.00,NNE,15,6.0,9.0,62,0.00,,,-99.99,,2013-07-01 06:02:00,
2013-07-01 01:12:00,61.0,48.0,-100.00,NNE,15,6.0,9.0,62,0.00,,,-99.99,,2013-07-01 06:12:00,
2013-07-01 01:33:00,62.0,48.0,-100.00,NNE,25,6.0,10.0,61,0.00,,,-99.99,,2013-07-01 06:33:00,
2013-07-01 01:43:00,61.0,48.0,-100.00,NNE,15,6.0,9.0,61,0.00,,,-99.99,,2013-07-01 06:43:00,
2013-07-01 02:01:00,60.0,48.0,-100.00,NNE,15,5.0,7.0,63,0.00,,,-99.99,,2013-07-01 07:01:00,
2013-07-01 02:11:00,61.0,48.0,-100.00,NNE,25,6.0,7.0,63,0.00,,,-99.99,,2013-07-01 07:11:00,
2013-07-01 02:33:00,61.0,48.0,-100.00,NNE,15,6.0,9.0,63,0.00,,,-99.99,,2013-07-01 07:33:00,
2013-07-01 02:43:00,60.0,48.0,-100.00,NNE,20,5.0,7.0,65,0.00,,,-99.99,,2013-07-01 07:43:00,
2013-07-01 02:53:00,60.0,49.0,-100.00,NNE,15,6.0,7.0,67,0.00,,,-99.99,,2013-07-01 07:53:00,
2013-07-01 03:11:00,60.0,49.0,-100.00,NNE,15,6.0,9.0,67,0.00,,,-99.99,,2013-07-01 08:11:00,
2013-07-01 03:22:00,60.0,49.0,-100.00,NNE,15,6.0,9.0,67,0.00,,,-99.99,,2013-07-01 08:22:00,
2013-07-01 03:33:00,59.0,49.0,-100.00,NNE,15,6.0,7.0,69,0.00,,,-99.99,,2013-07-01 08:33:00,
2013-07-01 03:42:00,59.0,49.0,-100.00,North,10,5.0,6.0,71,0.00,,,-99.99,,2013-07-01 08:42:00,
2013-07-01 03:52:00,58.0,50.0,-100.00,North,5,4.0,6.0,74,0.00,,,-99.99,,2013-07-01 08:52:00,
2013-07-01 04:02:00,58.0,50.0,-100.00,North,5,4.0,6.0,74,0.00,,,-99.99,,2013-07-01 09:02:00,
2013-07-01 04:11:00,57.0,50.0,-100.00,North,350,4.0,5.0,77,0.00,,,-99.99,,2013-07-01 09:11:00,
2013-07-01 04:22:00,56.0,50.0,-100.00,North,355,4.0,5.0,79,0.00,,,-99.99,,2013-07-01 09:22:00,
2013-07-01 04:34:00,56.0,50.0,-100.00,North,355,4.0,5.0,79,0.00,,,-99.99,,2013-07-01 09:34:00,
2013-07-01 04:43:00,56.0,50.0,-100.00,North,0,5.0,6.0,81,0.00,,,-99.99,,2013-07-01 09:43:00,
2013-07-01 04:53:00,56.0,50.0,-100.00,North,0,6.0,7.0,81,0.00,,,-99.99,,2013-07-01 09:53:00,
2013-07-01 05:03:00,56.0,50.0,-100.00,North,0,6.0,7.0,81,0.00,,,-99.99,,2013-07-01 10:03:00,
2013-07-01 05:11:00,56.0,50.0,-100.00,North,0,5.0,7.0,81,0.00,,,-99.99,,2013-07-01 10:11:00,
2013-07-01 05:22:00,56.0,50.0,-100.00,North,355,4.0,6.0,81,0.00,,,-99.99,,2013-07-01 10:22:00,
2013-07-01 05:33:00,56.0,50.0,-100.00,North,355,4.0,6.0,81,0.00,,,-99.99,,2013-07-01 10:33:00,
2013-07-01 05:42:00,55.0,50.0,-100.00,NNW,345,5.0,6.0,82,0.00,,,-99.99,,2013-07-01 10:42:00,
2013-07-01 05:52:00,55.0,50.0,-100.00,NNW,345,5.0,6.0,82,0.00,,,-99.99,,2013-07-01 10:52:00,
2013-07-01 06:02:00,55.0,50.0,-100.00,North,355,6.0,7.0,82,0.00,,,-99.99,,2013-07-01 11:02:00,
2013-07-01 06:11:00,55.0,50.0,-100.00,North,0,6.0,7.0,82,0.00,,,-99.99,,2013-07-01 11:11:00,
2013-07-01 06:33:00,55.0,50.0,-100.00,North,0,6.0,7.0,83,0.00,,,-99.99,,2013-07-01 11:33:00,
2013-07-01 06:43:00,56.0,51.0,-100.00,North,0,6.0,7.0,83,0.00,,,-99.99,,2013-07-01 11:43:00,
2013-07-01 07:11:00,56.0,51.0,-100.00,North,350,6.0,7.0,82,0.00,,,-99.99,,2013-07-01 12:11:00,
2013-07-01 07:22:00,56.0,51.0,-100.00,North,350,6.0,7.0,82,0.00,,,-99.99,,2013-07-01 12:22:00,
2013-07-01 07:33:00,57.0,51.0,-100.00,North,355,4.0,7.0,82,0.00,,,-99.99,,2013-07-01 12:33:00,
2013-07-01 07:43:00,57.0,52.0,-100.00,North,0,5.0,7.0,81,0.00,,,-99.99,,2013-07-01 12:43:00,
2013-07-01 07:53:00,58.0,52.0,-100.00,North,355,4.0,8.0,80,0.00,,,-99.99,,2013-07-01 12:53:00,
2013-07-01 08:12:00,58.0,52.0,-100.00,NNW,345,4.0,6.0,80,0.00,,,-99.99,,2013-07-01 13:12:00,
2013-07-01 08:23:00,60.0,53.0,-100.00,North,0,4.0,6.0,77,0.00,,,-99.99,,2013-07-01 13:23:00,
2013-07-01 08:33:00,60.0,53.0,-100.00,North,0,4.0,6.0,77,0.00,,,-99.99,,2013-07-01 13:33:00,
2013-07-01 08:43:00,62.0,53.0,-100.00,NNW,345,4.0,8.0,69,0.00,,,-99.99,,2013-07-01 13:43:00,
2013-07-01 08:53:00,62.0,53.0,-100.00,NNW,345,4.0,8.0,69,0.00,,,-99.99,,2013-07-01 13:53:00,
2013-07-01 09:11:00,67.0,53.0,-100.00,NNW,335,4.0,7.0,60,0.00,,,-99.99,,2013-07-01 14:11:00,
2013-07-01 09:34:00,69.0,54.0,-100.00,North,5,6.0,8.0,57,0.00,,,-99.99,,2013-07-01 14:34:00,
2013-07-01 09:43:00,71.0,52.0,-100.00,North,0,6.0,9.0,51,0.00,,,-99.99,,2013-07-01 14:43:00,
2013-07-01 10:02:00,73.0,51.0,-100.00,NNE,15,6.0,12.0,46,0.00,,,-99.99,,2013-07-01 15:02:00,
2013-07-01 10:11:00,73.0,51.0,-100.00,North,5,7.0,11.0,45,0.00,,,-99.99,,2013-07-01 15:11:00,
2013-07-01 10:23:00,73.0,51.0,-100.00,North,5,7.0,11.0,45,0.00,,,-99.99,,2013-07-01 15:23:00,
2013-07-01 10:34:00,73.0,51.0,-100.00,North,350,7.0,11.0,46,0.00,,,-99.99,,2013-07-01 15:34:00,
2013-07-01 10:43:00,74.0,52.0,-100.00,North,0,9.0,12.0,45,0.00,,,-99.99,,2013-07-01 15:43:00,
2013-07-01 10:52:00,74.0,51.0,-100.00,NNW,340,9.0,13.0,44,0.00,,,-99.99,,2013-07-01 15:52:00,
2013-07-01 11:01:00,74.0,51.0,-100.00,NNW,340,9.0,13.0,44,0.00,,,-99.99,,2013-07-01 16:01:00,
2013-07-01 11:11:00,76.0,52.0,-100.00,North,355,9.0,12.0,43,0.00,,,-99.99,,2013-07-01 16:11:00,
2013-07-01 11:22:00,76.0,51.0,-100.00,North,0,9.0,15.0,41,0.00,,,-99.99,,2013-07-01 16:22:00,
2013-07-01 11:33:00,76.0,51.0,-100.00,North,0,9.0,15.0,41,0.00,,,-99.99,,2013-07-01 16:33:00,
2013-07-01 11:44:00,77.0,51.0,-100.00,North,350,9.0,15.0,39,0.00,,,-99.99,,2013-07-01 16:44:00,
2013-07-01 11:53:00,77.0,51.0,-100.00,North,350,9.0,15.0,39,0.00,,,-99.99,,2013-07-01 16:53:00,
2013-07-01 12:02:00,77.0,50.0,-100.00,NE,40,7.0,14.0,38,0.00,,,-99.99,,2013-07-01 17:02:00,
2013-07-01 12:12:00,78.0,51.0,-100.00,North,10,9.0,14.0,38,0.00,,,-99.99,,2013-07-01 17:12:00,
2013-07-01 12:34:00,78.0,50.0,-100.00,NNE,30,10.0,16.0,37,0.00,,,-99.99,,2013-07-01 17:34:00,
2013-07-01 12:43:00,79.0,50.0,-100.00,North,5,12.0,17.0,36,0.00,,,-99.99,,2013-07-01 17:43:00,
2013-07-01 12:53:00,80.0,51.0,-100.00,NNE,20,7.0,12.0,37,0.00,,,-99.99,,2013-07-01 17:53:00,
2013-07-01 13:22:00,80.0,49.0,-100.00,NNE,20,12.0,17.0,34,0.00,,,-99.99,,2013-07-01 18:22:00,
2013-07-01 13:33:00,80.0,48.0,-100.00,NNE,25,13.0,24.0,33,0.00,,,-99.99,,2013-07-01 18:33:00,
2013-07-01 13:43:00,80.0,49.0,-100.00,NE,35,10.0,17.0,34,0.00,,,-99.99,,2013-07-01 18:43:00,
2013-07-01 14:02:00,81.0,49.0,-100.00,NNE,20,11.0,19.0,32,0.00,,,-99.99,,2013-07-01 19:02:00,
2013-07-01 14:11:00,81.0,49.0,-100.00,NE,35,9.0,19.0,32,0.00,,,-99.99,,2013-07-01 19:11:00,
2013-07-01 14:22:00,81.0,49.0,-100.00,NE,35,9.0,19.0,32,0.00,,,-99.99,,2013-07-01 19:22:00,
2013-07-01 14:33:00,81.0,49.0,-100.00,North,10,9.0,16.0,32,0.00,,,-99.99,,2013-07-01 19:33:00,
2013-07-01 14:44:00,81.0,49.0,-100.00,NE,40,8.0,16.0,33,0.00,,,-99.99,,2013-07-01 19:44:00,
2013-07-01 14:52:00,81.0,49.0,-100.00,NNE,15,12.0,22.0,32,0.00,,,-99.99,,2013-07-01 19:52:00,
2013-07-01 15:02:00,81.0,49.0,-100.00,NNE,15,12.0,22.0,32,0.00,,,-99.99,,2013-07-01 20:02:00,
2013-07-01 15:11:00,80.0,48.0,-100.00,NNE,25,11.0,20.0,32,0.00,,,-99.99,,2013-07-01 20:11:00,
2013-07-01 15:34:00,80.0,48.0,-100.00,NE,45,12.0,17.0,32,0.00,,,-99.99,,2013-07-01 20:34:00,
2013-07-01 15:43:00,81.0,49.0,-100.00,NNE,15,12.0,20.0,32,0.00,,,-99.99,,2013-07-01 20:43:00,
2013-07-01 15:52:00,81.0,49.0,-100.00,NNE,15,12.0,20.0,32,0.00,,,-99.99,,2013-07-01 20:52:00,
2013-07-01 16:02:00,82.0,50.0,-100.00,NNE,20,9.0,17.0,32,0.00,,,-99.99,,2013-07-01 21:02:00,
2013-07-01 16:11:00,81.0,49.0,-100.00,NNE,30,11.0,17.0,32,0.00,,,-99.99,,2013-07-01 21:11:00,
2013-07-01 16:34:00,81.0,49.0,-100.00,NNE,20,14.0,20.0,32,0.00,,,-99.99,,2013-07-01 21:34:00,
2013-07-01 16:43:00,80.0,48.0,-100.00,NNE,30,9.0,17.0,32,0.00,,,-99.99,,2013-07-01 21:43:00,
2013-07-01 17:01:00,82.0,49.0,-100.00,NNE,20,12.0,20.0,32,0.00,,,-99.99,,2013-07-01 22:01:00,
2013-07-01 17:11:00,82.0,49.0,-100.00,NNE,15,12.0,17.0,32,0.00,,,-99.99,,2013-07-01 22:11:00,
2013-07-01 17:33:00,81.0,48.0,-100.00,NNE,30,12.0,19.0,31,0.00,,,-99.99,,2013-07-01 22:33:00,
2013-07-01 17:43:00,80.0,47.0,-100.00,NE,40,10.0,21.0,31,0.00,,,-99.99,,2013-07-01 22:43:00,
2013-07-01 18:22:00,81.0,48.0,-100.00,NNE,15,7.0,17.0,32,0.00,,,-99.99,,2013-07-01 23:22:00,
2013-07-01 18:33:00,81.0,48.0,-100.00,NE,50,9.0,16.0,32,0.00,,,-99.99,,2013-07-01 23:33:00,
2013-07-01 18:44:00,80.0,48.0,-100.00,NE,45,11.0,16.0,32,0.00,,,-99.99,,2013-07-01 23:44:00,
2013-07-01 18:53:00,79.0,48.0,-100.00,NE,45,9.0,15.0,33,0.00,,,-99.99,,2013-07-01 23:53:00,
2013-07-01 19:01:00,79.0,48.0,-100.00,NE,45,9.0,15.0,33,0.00,,,-99.99,,2013-07-02 00:01:00,
2013-07-01 19:12:00,79.0,48.0,-100.00,NE,50,7.0,16.0,33,0.00,,,-99.99,,2013-07-02 00:12:00,
2013-07-01 19:22:00,79.0,48.0,-100.00,ENE,60,7.0,14.0,34,0.00,,,-99.99,,2013-07-02 00:22:00,
2013-07-01 19:34:00,79.0,48.0,-100.00,ENE,60,7.0,14.0,34,0.00,,,-99.99,,2013-07-02 00:34:00,
2013-07-01 19:43:00,78.0,48.0,-100.00,NE,35,8.0,12.0,34,0.00,,,-99.99,,2013-07-02 00:43:00,
2013-07-01 19:53:00,78.0,48.0,-100.00,NE,35,8.0,12.0,34,0.00,,,-99.99,,2013-07-02 00:53:00,
2013-07-01 20:01:00,77.0,47.0,-100.00,NE,40,6.0,10.0,35,0.00,,,-99.99,,2013-07-02 01:01:00,
2013-07-01 20:11:00,76.0,48.0,-100.00,NE,40,7.0,12.0,36,0.00,,,-99.99,,2013-07-02 01:11:00,
2013-07-01 20:33:00,75.0,47.0,-100.00,NE,50,7.0,12.0,37,0.00,,,-99.99,,2013-07-02 01:33:00,
2013-07-01 20:43:00,74.0,46.0,-100.00,NE,50,6.0,9.0,37,0.00,,,-99.99,,2013-07-02 01:43:00,
2013-07-01 20:53:00,72.0,46.0,-100.00,NE,55,6.0,9.0,38,0.00,,,-99.99,,2013-07-02 01:53:00,
2013-07-01 21:02:00,71.0,46.0,-100.00,NE,55,6.0,8.0,39,0.00,,,-99.99,,2013-07-02 02:02:00,
2013-07-01 21:33:00,70.0,45.0,-100.00,NE,55,4.0,6.0,41,0.00,,,-99.99,,2013-07-02 02:33:00,
2013-07-01 21:43:00,69.0,46.0,-100.00,NE,50,5.0,7.0,43,0.00,,,-99.99,,2013-07-02 02:43:00,
2013-07-01 21:53:00,69.0,46.0,-100.00,NE,50,4.0,7.0,43,0.00,,,-99.99,,2013-07-02 02:53:00,
2013-07-01 22:24:00,68.0,46.0,-100.00,NE,55,6.0,7.0,45,0.00,,,-99.99,,2013-07-02 03:24:00,
2013-07-01 22:32:00,68.0,47.0,-100.00,NE,55,6.0,7.0,46,0.00,,,-99.99,,2013-07-02 03:32:00,
2013-07-01 22:43:00,67.0,47.0,-100.00,NE,45,5.0,7.0,47,0.00,,,-99.99,,2013-07-02 03:43:00,
2013-07-01 22:53:00,67.0,47.0,-100.00,NE,45,4.0,7.0,48,0.00,,,-99.99,,2013-07-02 03:53:00,
2013-07-01 23:02:00,67.0,47.0,-100.00,NE,45,4.0,7.0,48,0.00,,,-99.99,,2013-07-02 04:02:00,
2013-07-01 23:11:00,66.0,47.0,-100.00,NE,40,5.0,6.0,50,0.00,,,-99.99,,2013-07-02 04:11:00,
2013-07-01 23:22:00,66.0,47.0,-100.00,NE,40,5.0,7.0,50,0.00,,,-99.99,,2013-07-02 04:22:00,
2013-07-01 23:32:00,66.0,47.0,-100.00,NE,40,5.0,7.0,50,0.00,,,-99.99,,2013-07-02 04:32:00,
2013-07-01 23:42:00,66.0,47.0,-100.00,NE,45,4.0,7.0,51,0.00,,,-99.99,,2013-07-02 04:42:00,
2013-07-01 23:53:00,66.0,47.0,-100.00,NE,45,4.0,7.0,51,0.00,,,-99.99,,2013-07-02 04:53:00,